Página principal
METAR-TAF:

METAR-TAF

Aeroportos :

Öskemen, Cazaquistão

latitude: 50-02-10N, longitude: 082-29-39E, altura: 286 m

Observação actual do tempo

O boletim foi feito há 12 minutos, às 17:00 UTC
Vento 4 kt de es-sudeste
Temperatura 1°C
Humidade 100%
Pressão 1026 hPa
Visibilidade 10 km ou mais

METAR: UASK 181700Z 12002MPS 9999 NSC 01/01 Q1026 R30/090060 NOSIG RMK QFE744/0992

Hora: 23:12 (17:12 UTC)

Previsão

O boletim foi feito há 3 horas e 9 minutos, às 14:03 UTC
Previsão válida de 18 às 15 UTC a 18 às 24 UTC
Vento 8 kt de noroeste
Visibilidade 10 km ou mais
Poucas nuvensa uma altura de 3000 ft
Nuvens dispersasa uma altura de 10000 ft
Temporariamente
de 18 às 15 UTC a 18 às 21 UTC
Visibilidade: 3000 m
Nuvens dispersasa uma altura de 400 ft
neblina

TAF: UASK 181403Z 1815/1824 32004MPS 9999 FEW030 SCT100 TEMPO 1815/1821 3000 BR SCT004

Observações e previsões do tempo de mais de 4000 aeroportos (mensagens METAR e TAF).

As estações disponíveis são os pontos amarelos e vermelhos sobre o mapa.

Mova o rato sobre o mapa para ver o nome da estação.

Depois clique no ponto para visualizar as observações e previsões meteorológicas.

Para alterar o mapa : clique nos botões verdes com uma cruz preta para aumentar o zoom; no botão verde com uma pitada de zoom; ou nas setas verdes para mapas adjacentes.


METAR-TAF: